createdAt,value
2019-01-28T00:00:21.400Z,66.20
2019-01-28T00:02:51.009Z,66.20
2019-01-28T00:05:20.378Z,66.20
2019-01-28T00:07:49.763Z,66.20
2019-01-28T00:10:19.129Z,66.30
2019-01-28T00:12:48.830Z,66.30
2019-01-28T00:15:18.226Z,66.20
2019-01-28T00:17:47.598Z,66.20
2019-01-28T00:20:16.974Z,66.20
2019-01-28T00:22:46.661Z,66.30
2019-01-28T00:25:16.036Z,66.20
2019-01-28T00:27:45.407Z,66.20
2019-01-28T00:30:15.155Z,66.20
2019-01-28T00:32:44.533Z,66.20
2019-01-28T00:35:14.075Z,66.00
2019-01-28T00:37:43.458Z,66.10
2019-01-28T00:40:13.266Z,66.00
2019-01-28T00:42:42.638Z,66.00
2019-01-28T00:45:14.096Z,66.10
2019-01-28T00:47:43.471Z,66.10
2019-01-28T00:50:13.800Z,66.20
2019-01-28T00:52:43.234Z,66.20
2019-01-28T00:55:14.222Z,66.20
2019-01-28T00:57:43.590Z,66.30
2019-01-28T01:00:20.183Z,66.30
2019-01-28T01:02:49.723Z,66.30
2019-01-28T01:05:19.095Z,66.40
2019-01-28T01:07:48.482Z,66.50
2019-01-28T01:10:18.815Z,66.50
2019-01-28T01:12:48.406Z,66.50
2019-01-28T01:15:18.106Z,66.60
2019-01-28T01:17:47.456Z,66.50
2019-01-28T01:20:17.752Z,66.60
2019-01-28T01:22:47.176Z,66.80
2019-01-28T01:25:16.545Z,66.70
2019-01-28T01:27:45.917Z,66.80
2019-01-28T01:30:17.821Z,66.80
2019-01-28T01:32:47.189Z,66.90
2019-01-28T01:35:16.564Z,66.90
2019-01-28T01:37:45.967Z,67.00
2019-01-28T01:40:16.774Z,67.00
2019-01-28T01:42:46.310Z,67.00
2019-01-28T01:45:18.220Z,67.10
2019-01-28T01:47:47.654Z,67.00
2019-01-28T01:50:17.028Z,67.10
2019-01-28T01:52:46.414Z,67.20
2019-01-28T01:55:16.235Z,67.20
2019-01-28T01:57:45.607Z,67.20
2019-01-28T02:00:18.234Z,67.20
2019-01-28T02:02:48.086Z,67.20
2019-01-28T02:05:17.525Z,67.20
2019-01-28T02:07:47.294Z,67.40
2019-01-28T02:10:17.325Z,67.50
2019-01-28T02:12:46.757Z,67.50
2019-01-28T02:15:18.822Z,67.60
2019-01-28T02:17:48.328Z,67.80
2019-01-28T02:20:17.901Z,68.00
2019-01-28T02:22:47.300Z,68.00
2019-01-28T02:25:16.943Z,67.90
2019-01-28T02:27:46.309Z,68.10
2019-01-28T02:30:17.973Z,68.10
2019-01-28T02:32:47.509Z,68.10
2019-01-28T02:35:17.039Z,68.20
2019-01-28T02:37:46.417Z,68.30
2019-01-28T02:40:18.018Z,68.30
2019-01-28T02:42:47.384Z,68.50
2019-01-28T02:45:17.540Z,68.40
2019-01-28T02:47:47.322Z,68.60
2019-01-28T02:50:18.601Z,68.60
2019-01-28T02:52:48.006Z,68.60
2019-01-28T02:55:17.649Z,68.60
2019-01-28T02:57:47.355Z,68.60
2019-01-28T03:00:22.345Z,68.50
2019-01-28T03:02:51.854Z,68.60
2019-01-28T03:05:21.303Z,68.60
2019-01-28T03:07:50.722Z,68.70
2019-01-28T03:10:22.316Z,68.70
2019-01-28T03:12:51.758Z,68.90
2019-01-28T03:15:21.301Z,68.90
2019-01-28T03:17:52.106Z,68.90
2019-01-28T03:20:21.561Z,69.00
2019-01-28T03:22:51.126Z,68.70
2019-01-28T03:25:20.740Z,68.60
2019-01-28T03:27:50.124Z,68.60
2019-01-28T03:30:21.947Z,68.60
2019-01-28T03:32:51.648Z,68.50
2019-01-28T03:35:21.089Z,68.70
2019-01-28T03:37:50.483Z,68.60
2019-01-28T03:40:21.674Z,68.40
2019-01-28T03:42:51.808Z,69.00
2019-01-28T03:45:22.925Z,68.40
2019-01-28T03:47:52.290Z,68.10
2019-01-28T03:50:21.732Z,68.10
2019-01-28T03:52:51.181Z,68.10
2019-01-28T03:55:20.584Z,68.40
2019-01-28T03:57:50.024Z,68.70
2019-01-28T04:00:26.182Z,68.90
2019-01-28T04:02:55.555Z,68.70
2019-01-28T04:05:25.261Z,68.70
2019-01-28T04:07:55.785Z,68.70
2019-01-28T04:10:26.044Z,68.50
2019-01-28T04:12:55.495Z,69.00
2019-01-28T04:15:27.166Z,68.80
2019-01-28T04:17:56.536Z,68.90
2019-01-28T04:20:26.766Z,68.80
2019-01-28T04:22:56.319Z,68.80
2019-01-28T04:25:25.793Z,68.80
2019-01-28T04:27:55.161Z,68.80
2019-01-28T04:30:27.369Z,68.80
2019-01-28T04:32:56.716Z,68.70
2019-01-28T04:35:26.107Z,68.40
2019-01-28T04:37:55.523Z,68.40
2019-01-28T04:40:24.895Z,68.40
2019-01-28T04:42:54.263Z,68.40
2019-01-28T04:45:23.656Z,68.30
2019-01-28T04:47:53.026Z,68.30
2019-01-28T04:50:22.872Z,68.40
2019-01-28T04:52:54.968Z,68.60
2019-01-28T04:55:24.338Z,68.40
2019-01-28T04:57:53.704Z,68.60
2019-01-28T05:00:26.689Z,68.60
2019-01-28T05:02:56.056Z,68.50
2019-01-28T05:05:25.430Z,68.60
2019-01-28T05:07:54.880Z,68.60
2019-01-28T05:10:24.321Z,68.80
2019-01-28T05:12:53.721Z,68.70
2019-01-28T05:15:23.072Z,68.90
2019-01-28T05:17:52.438Z,68.90
2019-01-28T05:20:23.598Z,69.00
2019-01-28T05:22:53.350Z,69.00
2019-01-28T05:25:22.713Z,69.00
2019-01-28T05:27:52.086Z,69.10
2019-01-28T05:30:25.539Z,69.20
2019-01-28T05:32:54.979Z,69.20
2019-01-28T05:35:24.939Z,69.30
2019-01-28T05:37:54.352Z,69.30
2019-01-28T05:40:25.884Z,69.30
2019-01-28T05:42:55.316Z,69.40
2019-01-28T05:45:25.506Z,69.50
2019-01-28T05:47:54.877Z,69.40
2019-01-28T05:50:24.239Z,69.40
2019-01-28T05:52:53.622Z,69.30
2019-01-28T05:55:23.063Z,69.20
2019-01-28T05:57:52.435Z,69.20
2019-01-28T06:00:39.090Z,69.10
2019-01-28T06:03:08.642Z,69.10
2019-01-28T06:05:38.083Z,69.00
2019-01-28T06:08:07.482Z,68.90
2019-01-28T06:10:36.850Z,68.90
2019-01-28T06:13:06.395Z,68.90
2019-01-28T06:15:35.801Z,69.00
2019-01-28T06:18:05.433Z,68.90
2019-01-28T06:20:34.807Z,68.90
2019-01-28T06:23:04.229Z,68.90
2019-01-28T06:25:33.717Z,69.00
2019-01-28T06:28:03.091Z,69.10
2019-01-28T06:30:34.107Z,69.00
2019-01-28T06:33:03.564Z,69.20
2019-01-28T06:35:32.940Z,69.30
2019-01-28T06:38:02.355Z,69.20
2019-01-28T06:40:34.675Z,69.20
2019-01-28T06:43:04.344Z,69.30
2019-01-28T06:45:33.747Z,69.30
2019-01-28T06:48:04.127Z,69.40
2019-01-28T06:50:33.490Z,69.30
2019-01-28T06:53:02.864Z,69.80
2019-01-28T06:55:32.234Z,69.80
2019-01-28T06:58:01.597Z,69.80
2019-01-28T07:00:34.154Z,69.80
2019-01-28T07:03:04.941Z,69.80
2019-01-28T07:05:34.305Z,69.70
2019-01-28T07:08:04.320Z,69.80
2019-01-28T07:10:33.698Z,69.70
2019-01-28T07:13:03.055Z,69.70
2019-01-28T07:15:32.434Z,69.80
2019-01-28T07:18:01.797Z,69.80
2019-01-28T07:20:31.535Z,69.80
2019-01-28T07:23:01.181Z,69.90
2019-01-28T07:25:30.703Z,69.90
2019-01-28T07:28:00.165Z,69.90
2019-01-28T07:30:32.830Z,70.00
2019-01-28T07:33:02.387Z,69.90
2019-01-28T07:35:32.018Z,69.90
2019-01-28T07:38:01.403Z,69.90
2019-01-28T07:40:30.761Z,70.00
2019-01-28T07:43:00.130Z,70.00
2019-01-28T07:45:33.212Z,70.10
2019-01-28T07:48:03.379Z,70.00
2019-01-28T07:50:32.784Z,70.10
2019-01-28T07:53:02.407Z,70.70
2019-01-28T07:55:31.765Z,70.70
2019-01-28T07:58:01.469Z,70.00
2019-01-28T08:00:31.917Z,70.00
2019-01-28T08:03:01.310Z,70.00
2019-01-28T08:05:30.737Z,69.90
2019-01-28T08:08:00.198Z,69.90
2019-01-28T08:10:29.562Z,69.80
2019-01-28T08:12:58.931Z,69.60
2019-01-28T08:15:29.365Z,69.60
2019-01-28T08:17:58.809Z,69.60
2019-01-28T08:20:28.161Z,69.50
2019-01-28T08:22:57.560Z,69.40
2019-01-28T08:25:26.922Z,69.40
2019-01-28T08:27:56.364Z,69.40
2019-01-28T08:30:37.292Z,69.30
2019-01-28T08:33:06.711Z,69.30
2019-01-28T08:35:36.401Z,69.30
2019-01-28T08:38:05.856Z,69.30
2019-01-28T08:40:35.217Z,69.20
2019-01-28T08:43:04.658Z,69.10
2019-01-28T08:45:34.064Z,69.10
2019-01-28T08:48:03.418Z,69.10
2019-01-28T08:50:32.829Z,69.00
2019-01-28T08:53:02.594Z,69.00
2019-01-28T08:55:32.025Z,68.90
2019-01-28T08:58:01.505Z,68.70
2019-01-28T09:00:35.063Z,68.70
2019-01-28T09:03:04.963Z,68.60
2019-01-28T09:05:35.010Z,68.60
2019-01-28T09:08:05.675Z,68.40
2019-01-28T09:10:35.649Z,68.40
2019-01-28T09:13:06.020Z,68.40
2019-01-28T09:15:35.468Z,68.10
2019-01-28T09:18:06.008Z,68.00
2019-01-28T09:20:35.514Z,67.90
2019-01-28T09:23:04.916Z,67.80
2019-01-28T09:25:34.280Z,67.70
2019-01-28T09:28:03.682Z,67.70
2019-01-28T09:30:36.147Z,67.60
2019-01-28T09:33:06.676Z,67.40
2019-01-28T09:35:36.056Z,67.40
2019-01-28T09:38:05.761Z,67.20
2019-01-28T09:40:37.527Z,67.10
2019-01-28T09:43:07.937Z,66.90
2019-01-28T09:45:40.758Z,66.80
2019-01-28T09:48:13.030Z,66.80
2019-01-28T09:50:42.492Z,66.60
2019-01-28T09:53:13.399Z,66.40
2019-01-28T09:55:42.766Z,66.30
2019-01-28T09:58:12.206Z,66.20
2019-01-28T10:00:49.676Z,66.10
2019-01-28T10:03:19.040Z,66.30
2019-01-28T10:05:48.410Z,66.30
2019-01-28T10:08:17.935Z,65.90
2019-01-28T10:10:47.371Z,66.00
2019-01-28T10:13:17.076Z,65.80
2019-01-28T10:15:46.461Z,65.60
2019-01-28T10:18:16.000Z,65.60
2019-01-28T10:20:47.522Z,65.40
2019-01-28T10:23:17.210Z,65.30
2019-01-28T10:25:47.030Z,65.40
2019-01-28T10:28:16.399Z,65.30
2019-01-28T10:30:47.490Z,65.10
2019-01-28T10:33:17.239Z,64.60
2019-01-28T10:35:46.931Z,64.30
2019-01-28T10:38:16.384Z,64.40
2019-01-28T10:40:46.656Z,64.40
2019-01-28T10:43:16.024Z,64.40
2019-01-28T10:45:47.657Z,64.50
2019-01-28T10:48:17.866Z,64.30
2019-01-28T10:50:47.343Z,64.20
2019-01-28T10:53:16.672Z,64.00
2019-01-28T10:55:46.483Z,63.90
2019-01-28T10:58:15.849Z,63.60
2019-01-28T11:00:48.072Z,63.40
2019-01-28T11:03:19.056Z,63.30
2019-01-28T11:05:48.434Z,63.20
2019-01-28T11:08:17.816Z,63.00
2019-01-28T11:10:47.281Z,62.90
2019-01-28T11:13:16.734Z,63.50
2019-01-28T11:15:46.187Z,62.70
2019-01-28T11:18:23.060Z,62.80
2019-01-28T11:20:52.523Z,62.60
2019-01-28T11:23:22.335Z,62.60
2019-01-28T11:25:51.966Z,62.50
2019-01-28T11:28:21.455Z,62.40
2019-01-28T11:30:56.092Z,62.20
2019-01-28T11:33:25.427Z,62.20
2019-01-28T11:35:54.911Z,62.00
2019-01-28T11:38:25.692Z,62.10
2019-01-28T11:40:55.175Z,61.90
2019-01-28T11:43:24.640Z,61.80
2019-01-28T11:46:00.450Z,61.70
2019-01-28T11:48:29.878Z,61.50
2019-01-28T11:50:59.207Z,61.20
2019-01-28T11:53:28.955Z,61.10
2019-01-28T11:55:58.309Z,61.00
2019-01-28T11:58:27.674Z,60.80
2019-01-28T12:01:02.347Z,60.80
2019-01-28T12:03:31.708Z,60.50
2019-01-28T12:06:01.081Z,60.20
2019-01-28T12:08:30.534Z,60.00
2019-01-28T12:10:59.907Z,59.80
2019-01-28T12:13:29.295Z,59.70
2019-01-28T12:15:58.696Z,59.40
2019-01-28T12:18:28.135Z,59.20
2019-01-28T12:20:57.453Z,59.10
2019-01-28T12:23:27.108Z,59.10
2019-01-28T12:25:56.483Z,58.90
2019-01-28T12:28:25.855Z,58.80
2019-01-28T12:30:55.782Z,58.70
2019-01-28T12:33:25.158Z,58.70
2019-01-28T12:35:54.534Z,58.30
2019-01-28T12:38:23.936Z,57.90
2019-01-28T12:40:53.501Z,58.20
2019-01-28T12:43:22.874Z,58.00
2019-01-28T12:45:52.257Z,57.80
2019-01-28T12:48:23.079Z,57.80
2019-01-28T12:50:52.693Z,57.70
2019-01-28T12:53:22.303Z,57.90
2019-01-28T12:55:51.672Z,57.00
2019-01-28T12:58:21.041Z,57.30
2019-01-28T13:00:52.066Z,57.10
2019-01-28T13:03:21.438Z,56.80
2019-01-28T13:05:50.810Z,56.70
2019-01-28T13:08:20.188Z,56.40
2019-01-28T13:10:49.563Z,56.30
2019-01-28T13:13:18.936Z,56.20
2019-01-28T13:15:49.085Z,55.80
2019-01-28T13:18:18.454Z,55.70
2019-01-28T13:20:47.827Z,55.70
2019-01-28T13:23:17.211Z,55.80
2019-01-28T13:25:46.590Z,56.20
2019-01-28T13:28:15.965Z,56.40
2019-01-28T13:30:45.361Z,55.70
2019-01-28T13:33:15.741Z,55.60
2019-01-28T13:35:45.183Z,55.50
2019-01-28T13:38:14.822Z,55.50
2019-01-28T13:40:44.195Z,55.70
2019-01-28T13:43:14.982Z,55.60
2019-01-28T13:45:44.390Z,55.50
2019-01-28T13:48:14.788Z,55.20
2019-01-28T13:50:45.167Z,55.10
2019-01-28T13:53:14.533Z,55.20
2019-01-28T13:55:43.903Z,55.20
2019-01-28T13:58:13.597Z,54.90
2019-01-28T14:00:42.976Z,54.80
2019-01-28T14:03:12.427Z,54.80
2019-01-28T14:05:41.839Z,54.70
2019-01-28T14:08:11.381Z,54.70
2019-01-28T14:10:40.753Z,54.70
2019-01-28T14:13:10.133Z,54.70
2019-01-28T14:15:40.726Z,54.70
2019-01-28T14:18:10.935Z,54.70
2019-01-28T14:20:41.786Z,54.20
2019-01-28T14:23:11.231Z,54.90
2019-01-28T14:25:40.667Z,55.10
2019-01-28T14:28:10.450Z,55.00
2019-01-28T14:30:46.952Z,55.00
2019-01-28T14:33:16.327Z,54.90
2019-01-28T14:35:46.082Z,54.90
2019-01-28T14:38:15.526Z,55.00
2019-01-28T14:40:44.965Z,55.10
2019-01-28T14:43:14.344Z,55.20
2019-01-28T14:45:43.849Z,55.30
2019-01-28T14:48:13.358Z,55.50
2019-01-28T14:50:42.814Z,55.20
2019-01-28T14:53:12.453Z,55.30
2019-01-28T14:55:41.843Z,55.50
2019-01-28T14:58:16.530Z,55.50
2019-01-28T15:00:45.179Z,55.50
2019-01-28T15:03:14.690Z,55.40
2019-01-28T15:05:44.228Z,55.40
2019-01-28T15:08:13.671Z,55.40
2019-01-28T15:10:43.112Z,55.60
2019-01-28T15:13:12.675Z,55.50
2019-01-28T15:15:42.172Z,55.50
2019-01-28T15:18:13.151Z,55.60
2019-01-28T15:20:42.776Z,55.60
2019-01-28T15:23:12.220Z,55.60
2019-01-28T15:25:41.862Z,55.60
2019-01-28T15:28:11.254Z,55.70
2019-01-28T15:30:40.653Z,55.60
2019-01-28T15:33:10.082Z,55.70
2019-01-28T15:35:39.482Z,55.90
2019-01-28T15:38:08.927Z,55.80
2019-01-28T15:40:38.437Z,55.80
2019-01-28T15:43:08.223Z,55.80
2019-01-28T15:45:41.210Z,55.90
2019-01-28T15:48:11.459Z,56.10
2019-01-28T15:50:40.879Z,56.30
2019-01-28T15:53:10.245Z,56.50
2019-01-28T15:55:41.581Z,56.80
2019-01-28T15:58:12.425Z,57.20
2019-01-28T16:00:44.040Z,57.40
2019-01-28T16:03:13.582Z,57.50
2019-01-28T16:05:42.995Z,57.80
2019-01-28T16:08:12.404Z,57.90
2019-01-28T16:10:41.819Z,58.00
2019-01-28T16:13:11.187Z,58.20
2019-01-28T16:15:44.165Z,58.20
2019-01-28T16:18:13.638Z,58.60
2019-01-28T16:20:43.494Z,58.70
2019-01-28T16:23:12.999Z,58.90
2019-01-28T16:25:42.372Z,59.00
2019-01-28T16:28:11.823Z,59.00
2019-01-28T16:30:41.737Z,59.20
2019-01-28T16:33:11.398Z,59.40
2019-01-28T16:35:40.778Z,59.60
2019-01-28T16:38:10.148Z,59.80
2019-01-28T16:40:39.517Z,60.00
2019-01-28T16:43:09.451Z,60.10
2019-01-28T16:45:40.467Z,60.30
2019-01-28T16:48:09.895Z,60.40
2019-01-28T16:50:39.348Z,60.40
2019-01-28T16:53:08.986Z,60.70
2019-01-28T16:55:38.433Z,60.80
2019-01-28T16:58:08.101Z,60.80
2019-01-28T17:00:40.283Z,60.80
2019-01-28T17:03:11.066Z,61.10
2019-01-28T17:05:41.059Z,61.20
2019-01-28T17:08:10.527Z,61.40
2019-01-28T17:10:40.321Z,61.50
2019-01-28T17:13:09.790Z,61.70
2019-01-28T17:15:39.230Z,61.90
2019-01-28T17:18:08.856Z,62.00
2019-01-28T17:20:38.547Z,62.00
2019-01-28T17:23:08.121Z,62.40
2019-01-28T17:25:41.624Z,62.40
2019-01-28T17:28:11.351Z,62.50
2019-01-28T17:30:44.505Z,62.70
2019-01-28T17:33:14.152Z,62.90
2019-01-28T17:35:43.618Z,62.90
2019-01-28T17:38:13.225Z,63.20
2019-01-28T17:40:43.527Z,63.30
2019-01-28T17:43:13.452Z,63.40
2019-01-28T17:45:42.821Z,63.50
2019-01-28T17:48:12.275Z,63.40
2019-01-28T17:50:43.840Z,63.70
2019-01-28T17:53:13.146Z,63.80
2019-01-28T17:55:42.513Z,63.80
2019-01-28T17:58:11.917Z,63.90
2019-01-28T18:00:42.928Z,63.90
2019-01-28T18:03:12.287Z,64.00
2019-01-28T18:05:41.986Z,64.00
2019-01-28T18:08:11.651Z,64.00
2019-01-28T18:10:41.094Z,64.10
2019-01-28T18:13:10.474Z,64.20
2019-01-28T18:15:39.851Z,64.10
2019-01-28T18:18:09.225Z,64.20
2019-01-28T18:20:38.626Z,64.40
2019-01-28T18:23:09.643Z,64.30
2019-01-28T18:25:39.092Z,64.30
2019-01-28T18:28:08.756Z,64.50
2019-01-28T18:30:51.635Z,64.70
2019-01-28T18:33:21.028Z,64.70
2019-01-28T18:35:50.375Z,64.80
2019-01-28T18:38:19.743Z,64.70
2019-01-28T18:40:49.149Z,64.70
2019-01-28T18:43:18.520Z,65.00
2019-01-28T18:45:47.912Z,64.90
2019-01-28T18:48:17.902Z,65.00
2019-01-28T18:50:47.264Z,65.00
2019-01-28T18:53:16.631Z,65.10
2019-01-28T18:55:46.235Z,65.20
2019-01-28T18:58:15.607Z,65.10
2019-01-28T19:00:44.989Z,65.80
2019-01-28T19:03:14.376Z,65.20
2019-01-28T19:05:54.099Z,65.00
2019-01-28T19:08:34.283Z,65.00
2019-01-28T19:11:05.631Z,65.10
2019-01-28T19:13:36.636Z,64.90
2019-01-28T19:16:08.163Z,65.00
2019-01-28T19:18:39.184Z,64.90
2019-01-28T19:21:10.192Z,65.00
2019-01-28T19:23:39.801Z,65.00
2019-01-28T19:26:09.426Z,65.00
2019-01-28T19:28:38.798Z,65.00
2019-01-28T19:31:08.218Z,64.90
2019-01-28T19:33:37.581Z,65.20
2019-01-28T19:36:07.137Z,65.20
2019-01-28T19:38:36.521Z,65.10
2019-01-28T19:41:05.881Z,65.10
2019-01-28T19:43:35.248Z,65.10
2019-01-28T19:46:05.593Z,65.20
2019-01-28T19:48:34.956Z,65.20
2019-01-28T19:51:05.302Z,65.30
2019-01-28T19:53:34.684Z,65.40
2019-01-28T19:56:04.666Z,65.40
2019-01-28T19:58:34.035Z,65.40
2019-01-28T20:01:03.747Z,65.30
2019-01-28T20:03:33.093Z,65.20
2019-01-28T20:06:02.462Z,65.20
2019-01-28T20:08:32.321Z,65.10
2019-01-28T20:11:01.700Z,65.20
2019-01-28T20:13:31.066Z,65.20
2019-01-28T20:16:00.459Z,65.30
2019-01-28T20:18:29.901Z,65.30
2019-01-28T20:20:59.275Z,65.40
2019-01-28T20:23:28.689Z,65.40
2019-01-28T20:25:58.052Z,65.30
2019-01-28T20:28:27.428Z,65.30
2019-01-28T20:30:57.014Z,65.20
2019-01-28T20:33:26.375Z,65.20
2019-01-28T20:35:55.740Z,65.20
2019-01-28T20:38:25.128Z,65.30
2019-01-28T20:40:54.505Z,65.20
2019-01-28T20:43:24.395Z,65.30
2019-01-28T20:45:53.857Z,65.30
2019-01-28T20:48:23.222Z,65.30
2019-01-28T20:50:52.653Z,65.40
2019-01-28T20:53:22.487Z,65.40
2019-01-28T20:55:51.887Z,65.60
2019-01-28T20:58:21.687Z,65.60
2019-01-28T21:00:51.080Z,65.60
2019-01-28T21:03:20.434Z,65.60
2019-01-28T21:05:49.850Z,65.60
2019-01-28T21:08:19.226Z,65.80
2019-01-28T21:10:48.615Z,65.70
2019-01-28T21:13:17.939Z,65.70
2019-01-28T21:15:47.770Z,65.80
2019-01-28T21:18:17.136Z,66.00
2019-01-28T21:20:46.510Z,65.90
2019-01-28T21:23:15.972Z,66.00
2019-01-28T21:25:45.342Z,65.90
2019-01-28T21:28:14.710Z,66.00
2019-01-28T21:30:44.115Z,66.00
2019-01-28T21:33:13.466Z,66.00
2019-01-28T21:35:56.858Z,65.90
2019-01-28T21:38:36.863Z,66.10
2019-01-28T21:41:06.621Z,66.20
2019-01-28T21:43:36.100Z,66.20
2019-01-28T21:46:05.634Z,66.20
2019-01-28T21:48:35.020Z,66.20
2019-01-28T21:51:04.465Z,66.30
2019-01-28T21:53:33.828Z,66.20
2019-01-28T21:56:03.701Z,66.20
2019-01-28T21:58:33.306Z,66.20
2019-01-28T22:01:03.028Z,66.30
2019-01-28T22:03:32.399Z,66.30
2019-01-28T22:06:01.771Z,66.40
2019-01-28T22:08:31.140Z,66.30
2019-01-28T22:11:00.523Z,66.30
2019-01-28T22:13:29.901Z,66.50
2019-01-28T22:15:59.261Z,66.60
2019-01-28T22:18:28.951Z,66.50
2019-01-28T22:20:58.312Z,66.60
2019-01-28T22:23:27.696Z,66.60
2019-01-28T22:25:57.088Z,66.60
2019-01-28T22:28:26.454Z,66.70
2019-01-28T22:30:55.827Z,66.70
2019-01-28T22:33:25.237Z,66.70
2019-01-28T22:35:54.604Z,66.70
2019-01-28T22:38:24.027Z,66.80
2019-01-28T22:40:53.648Z,66.70
2019-01-28T22:43:23.080Z,66.70
2019-01-28T22:45:52.446Z,66.80
2019-01-28T22:48:21.832Z,66.90
2019-01-28T22:50:54.114Z,66.90
2019-01-28T22:53:23.478Z,66.80
2019-01-28T22:55:52.862Z,67.00
2019-01-28T22:58:22.272Z,67.00
2019-01-28T23:00:57.853Z,67.10
2019-01-28T23:03:27.798Z,67.00
2019-01-28T23:05:57.257Z,67.00
2019-01-28T23:08:26.665Z,67.20
2019-01-28T23:10:56.039Z,67.10
2019-01-28T23:13:25.408Z,67.10
2019-01-28T23:15:54.795Z,67.10
2019-01-28T23:18:24.180Z,67.20
2019-01-28T23:20:53.810Z,67.20
2019-01-28T23:23:23.785Z,67.20
2019-01-28T23:25:53.179Z,67.20
2019-01-28T23:28:22.558Z,67.20
2019-01-28T23:30:51.937Z,67.20
2019-01-28T23:33:21.303Z,67.40
2019-01-28T23:35:50.746Z,67.10
2019-01-28T23:38:20.136Z,67.10
2019-01-28T23:40:49.500Z,67.20
2019-01-28T23:43:18.865Z,67.10
2019-01-28T23:45:48.465Z,67.10
2019-01-28T23:48:17.899Z,67.30
2019-01-28T23:50:47.265Z,67.40
2019-01-28T23:53:16.652Z,67.60
2019-01-28T23:55:46.317Z,67.70
2019-01-28T23:58:15.680Z,67.60
